KPHF/PHF METAR and TAF weather

Enter ICAO airport designator
Station Type Date Time Source
KPHF METAR 2022/05/23 14:54 UTC NOAA

KPHF 231454Z AUTO 01009KT 10SM OVC018 21/18 A3019 RMK AO2 SLP222 T02110178 51012


Station Type Date Time Source
KPHF Decoded METAR 2022/05/23 14:54 UTC NOAA

WILLIAMSBURG INTERNATIONAL AIRPORT , VA, United States (KPHF) 37-08N 76-30W 12M
May 23, 2022 - 10:54 AM EDT / 2022.05.23 1454 UTC
Wind: from the N (010 degrees) at 10 MPH (9 KT):0
Visibility: 10 mile(s):0
Sky conditions: overcast
Temperature: 70.0 F (21.1 C)
Dew Point: 64.0 F (17.8 C)
Relative Humidity: 81%
Pressure (altimeter): 30.19 in. Hg (1022 hPa)
Pressure tendency: 0.04 inches (1.2 hPa) higher than three hours ago
ob: KPHF 231454Z AUTO 01009KT 10SM OVC018 21/18 A3019 RMK AO2 SLP222 T02110178 51012
cycle: 15

Station Type Date Time Source
KPHF TAF 2022/05/23 15:59 UTC NOAA

TAF
AMD KPHF 231459Z 2315/2412 01009KT P6SM OVC018
FM232200 06007KT P6SM OVC080
FM240300 05004KT P6SM -SHRA OVC050
FM240700 06005KT 6SM -SHRA OVC010

Example: see airport list